METAR

ENBN 071620Z 20021KT 9999 -SHRA FEW014 BKN020 10/07 Q0989

ENMS 071624Z 00000KT 9999 -RA FEW010 SCT031 BKN034 07/06 Q0989 RMK WIND 412FT VRB01KT

ENNM 071620Z 22010KT 190V250 9999 FEW042 SCT050 11/05 Q0991

ENOL 071620Z 24011KT 9999 VCSH FEW011 FEW020CB BKN040 10/07 Q0991 TEMPO 23015G25KT SHRA

ENST 071620Z 18019G30KT 9999 SCT012 BKN020 09/07 Q0988 RMK WIND 300FT 18024KT

ENVA 071620Z VRB03KT 9999 FEW025CB 10/06 Q0992 NOSIG RMK WIND 670FT 21010KT



TAF

TAF ENVA 071100Z 0712/0812 VRB08KT 9999 BKN050 TEMPO 0712/0721 17015G25KT SHRA BKN020CB BECMG 0719/0721 24012KT TEMPO 0803/0812 25020G32KT SHRA BKN020CB